COOK1: Arkansas River Nr Coolidge, KS

                                SHEF ID:       COOK1     ARKANSAS R NR COOLIDGE, KS
STATION TYPE:
Regulating: Stage = 8.00, Flow = 2041

PRECIP STAGE STAGE(2) RIV-FLOW WTR-TEMP CONDUCT BAT-LOAD
in ft ft cfs F umho/cm volt
Ccp-Rev Ccp-Rev Ccp-Rev Ccp-Rev Ccp-Rev Ccp-Rev Ccp-Rev
(America/Chicago)
11/06 00:00 0.00 1.76 ---- 40 51.26 6763 12.44
11/06 01:00 0.00 1.78 ---- 41 50.56 6786 12.42
11/06 02:00 0.00 1.77 ---- 41 49.91 6752 12.40
11/06 03:00 0.00 1.76 ---- 40 49.28 6709 12.37
11/06 04:00 0.00 1.75 ---- 39 48.74 6730 12.36
11/06 05:00 0.00 1.74 ---- 39 48.42 6799 12.35
11/06 06:00 0.00 1.73 ---- 38 48.13 6842 12.32
11/06 07:00 0.00 1.73 ---- 38 47.79 6860 12.28
11/06 08:00 0.00 1.73 ---- 38 47.57 6881 12.23
11/06 09:00 0.00 1.73 ---- 38 48.06 6898 12.84
11/06 10:00 0.00 1.73 ---- 38 49.08 6901 13.22
11/06 11:00 0.00 1.75 ---- 39 14.00 0 13.79
11/06 12:00 0.00 1.76 ---- 40 54.10 6829 13.96
11/06 13:00 0.00 1.77 ---- 41 56.62 6820 14.31
11/06 14:00 0.00 1.77 ---- 41 57.52 6822 14.24
11/06 15:00 0.00 1.77 ---- 41 57.07 6806 13.82
11/06 16:00 0.00 1.77 ---- 41 56.70 6790 13.79
11/06 17:00 0.00 1.76 ---- 40 56.46 6784 13.51
11/06 18:00 0.00 1.75 ---- 39 56.01 6795 12.68
11/06 19:00 0.00 1.74 ---- 39 55.11 6817 12.66
11/06 20:00 0.00 1.73 ---- 38 54.14 6822 12.61
11/06 21:00 0.00 1.72 ---- 37 53.29 6836 12.57
11/06 22:00 0.00 1.72 ---- 37 52.48 6853 12.53
11/06 23:00 0.00 1.71 ---- 37 51.76 6892 12.49
Data processed at Fri 07Nov2025 05:30 GMT

NOTICE: If you are parsing this page

Please convert to using our Data API. Starting January 1st, 2026 we will be migrating to: https://water.usace.army.mil with modern pages rendered in JavaScript. You will no longer be able to scrape this page! CWMSDataAPI (CDA)

Timeseries IDs (TSIDs)

TSIDs used from left to right in the data table
COOL.Precip-Inc.Total.1Hour.1Hour.Ccp-Rev
COOL.Stage.Inst.1Hour.0.Ccp-Rev
COOL.Stage-Alt.Inst.1Hour.0.Ccp-Rev
COOL.Flow.Inst.1Hour.0.Ccp-Rev
COOL.Temp-Water.Inst.1Hour.0.Ccp-Rev
COOL.Cond.Inst.1Hour.0.Ccp-Rev
COOL.Volt-Battery Load.Inst.1Hour.0.Ccp-Rev

                            

All information presented herein is the property of the government of the United States of America and may be revised or deleted at any time without prior notice. Dissemination of this information without the expressed written consent of the Public Affairs Office, Tulsa District U.S. Army Corps of Engineers is strictly prohibited. These data are gathered electronically and, as presented, have NOT undergone any form of quality control. These data are NOT guaranteed to be valid or correct.